sensor_id;sensor_type;location;lat;lon;timestamp;P1;durP1;ratioP1;P2;durP2;ratioP2
21120;SDS011;12519;43.318;21.898;2022-08-03T00:00:37;7.0;;;6.0;;
21120;SDS011;12519;43.318;21.898;2022-08-03T00:05:14;6.0;;;6.0;;
21120;SDS011;12519;43.318;21.898;2022-08-03T00:09:50;6.0;;;6.0;;
21120;SDS011;12519;43.318;21.898;2022-08-03T00:14:27;6.0;;;6.0;;
21120;SDS011;12519;43.318;21.898;2022-08-03T00:19:03;6.0;;;6.0;;
21120;SDS011;12519;43.318;21.898;2022-08-03T00:23:40;6.0;;;6.0;;
21120;SDS011;12519;43.318;21.898;2022-08-03T00:28:16;6.0;;;6.0;;
21120;SDS011;12519;43.318;21.898;2022-08-03T00:32:52;6.0;;;6.0;;
21120;SDS011;12519;43.318;21.898;2022-08-03T00:37:28;6.0;;;6.0;;
21120;SDS011;12519;43.318;21.898;2022-08-03T00:42:05;6.0;;;6.0;;
21120;SDS011;12519;43.318;21.898;2022-08-03T00:46:42;6.0;;;6.0;;
21120;SDS011;12519;43.318;21.898;2022-08-03T00:51:19;6.0;;;6.0;;
21120;SDS011;12519;43.318;21.898;2022-08-03T00:55:58;6.0;;;6.0;;
21120;SDS011;12519;43.318;21.898;2022-08-03T01:00:37;6.0;;;6.0;;
21120;SDS011;12519;43.318;21.898;2022-08-03T01:15:03;6.0;;;5.0;;
21120;SDS011;12519;43.318;21.898;2022-08-03T01:19:59;6.0;;;5.0;;
21120;SDS011;12519;43.318;21.898;2022-08-03T01:25:02;6.0;;;5.0;;
21120;SDS011;12519;43.318;21.898;2022-08-03T01:30:03;6.0;;;5.0;;
21120;SDS011;12519;43.318;21.898;2022-08-03T01:34:51;6.0;;;6.0;;
21120;SDS011;12519;43.318;21.898;2022-08-03T01:39:44;6.0;;;6.0;;
21120;SDS011;12519;43.318;21.898;2022-08-03T01:44:32;6.0;;;6.0;;
21120;SDS011;12519;43.318;21.898;2022-08-03T01:49:23;6.0;;;6.0;;
21120;SDS011;12519;43.318;21.898;2022-08-03T01:54:14;6.0;;;6.0;;
21120;SDS011;12519;43.318;21.898;2022-08-03T01:59:02;6.0;;;6.0;;
21120;SDS011;12519;43.318;21.898;2022-08-03T02:03:49;7.0;;;5.0;;
21120;SDS011;12519;43.318;21.898;2022-08-03T02:08:36;7.0;;;5.0;;
21120;SDS011;12519;43.318;21.898;2022-08-03T02:13:29;6.0;;;5.0;;
21120;SDS011;12519;43.318;21.898;2022-08-03T02:18:13;6.0;;;5.0;;
21120;SDS011;12519;43.318;21.898;2022-08-03T02:22:57;5.0;;;5.0;;
21120;SDS011;12519;43.318;21.898;2022-08-03T02:27:42;5.0;;;5.0;;
21120;SDS011;12519;43.318;21.898;2022-08-03T02:32:56;6.0;;;6.0;;
21120;SDS011;12519;43.318;21.898;2022-08-03T02:37:46;6.0;;;6.0;;
21120;SDS011;12519;43.318;21.898;2022-08-03T02:42:44;6.0;;;6.0;;
21120;SDS011;12519;43.318;21.898;2022-08-03T02:47:37;6.0;;;6.0;;
21120;SDS011;12519;43.318;21.898;2022-08-03T02:52:27;6.0;;;6.0;;
21120;SDS011;12519;43.318;21.898;2022-08-03T02:57:12;6.0;;;6.0;;
21120;SDS011;12519;43.318;21.898;2022-08-03T03:01:54;6.0;;;5.0;;
21120;SDS011;12519;43.318;21.898;2022-08-03T03:06:35;6.0;;;5.0;;
21120;SDS011;12519;43.318;21.898;2022-08-03T03:11:18;6.0;;;5.0;;
21120;SDS011;12519;43.318;21.898;2022-08-03T03:16:02;6.0;;;5.0;;
21120;SDS011;12519;43.318;21.898;2022-08-03T03:20:41;6.0;;;5.0;;
21120;SDS011;12519;43.318;21.898;2022-08-03T03:25:23;5.0;;;5.0;;
21120;SDS011;12519;43.318;21.898;2022-08-03T03:30:01;6.0;;;6.0;;
21120;SDS011;12519;43.318;21.898;2022-08-03T03:34:41;6.0;;;6.0;;
21120;SDS011;12519;43.318;21.898;2022-08-03T03:39:20;6.0;;;6.0;;
21120;SDS011;12519;43.318;21.898;2022-08-03T03:43:57;7.0;;;6.0;;
21120;SDS011;12519;43.318;21.898;2022-08-03T03:48:34;7.0;;;6.0;;
21120;SDS011;12519;43.318;21.898;2022-08-03T03:53:13;6.0;;;6.0;;
21120;SDS011;12519;43.318;21.898;2022-08-03T03:57:50;6.0;;;6.0;;
21120;SDS011;12519;43.318;21.898;2022-08-03T04:02:26;6.0;;;5.0;;
21120;SDS011;12519;43.318;21.898;2022-08-03T04:07:02;6.0;;;5.0;;
21120;SDS011;12519;43.318;21.898;2022-08-03T04:11:47;6.0;;;6.0;;
21120;SDS011;12519;43.318;21.898;2022-08-03T04:16:35;6.0;;;6.0;;
21120;SDS011;12519;43.318;21.898;2022-08-03T04:21:25;7.0;;;6.0;;
21120;SDS011;12519;43.318;21.898;2022-08-03T04:26:11;7.0;;;6.0;;
21120;SDS011;12519;43.318;21.898;2022-08-03T04:30:58;7.0;;;6.0;;
21120;SDS011;12519;43.318;21.898;2022-08-03T04:35:47;7.0;;;6.0;;
21120;SDS011;12519;43.318;21.898;2022-08-03T04:40:41;7.0;;;7.0;;
21120;SDS011;12519;43.318;21.898;2022-08-03T04:45:26;7.0;;;7.0;;
21120;SDS011;12519;43.318;21.898;2022-08-03T04:50:12;7.0;;;6.0;;
21120;SDS011;12519;43.318;21.898;2022-08-03T04:54:53;7.0;;;6.0;;
21120;SDS011;12519;43.318;21.898;2022-08-03T04:59:30;7.0;;;6.0;;
21120;SDS011;12519;43.318;21.898;2022-08-03T05:04:07;7.0;;;6.0;;
21120;SDS011;12519;43.318;21.898;2022-08-03T05:08:44;7.0;;;6.0;;
21120;SDS011;12519;43.318;21.898;2022-08-03T05:13:21;9.0;;;8.0;;
21120;SDS011;12519;43.318;21.898;2022-08-03T05:17:58;9.0;;;8.0;;
21120;SDS011;12519;43.318;21.898;2022-08-03T05:22:35;11.0;;;10.0;;
21120;SDS011;12519;43.318;21.898;2022-08-03T05:27:11;11.0;;;10.0;;
21120;SDS011;12519;43.318;21.898;2022-08-03T05:31:49;12.0;;;12.0;;
21120;SDS011;12519;43.318;21.898;2022-08-03T05:36:25;12.0;;;12.0;;
21120;SDS011;12519;43.318;21.898;2022-08-03T05:41:02;14.0;;;13.0;;
21120;SDS011;12519;43.318;21.898;2022-08-03T05:45:40;14.0;;;13.0;;
21120;SDS011;12519;43.318;21.898;2022-08-03T05:50:18;12.0;;;11.0;;
21120;SDS011;12519;43.318;21.898;2022-08-03T05:54:56;12.0;;;11.0;;
21120;SDS011;12519;43.318;21.898;2022-08-03T05:59:32;11.0;;;9.0;;
21120;SDS011;12519;43.318;21.898;2022-08-03T06:04:08;11.0;;;9.0;;
21120;SDS011;12519;43.318;21.898;2022-08-03T06:08:45;11.0;;;9.0;;
21120;SDS011;12519;43.318;21.898;2022-08-03T06:13:22;10.0;;;8.0;;
21120;SDS011;12519;43.318;21.898;2022-08-03T06:17:59;10.0;;;8.0;;
21120;SDS011;12519;43.318;21.898;2022-08-03T06:22:35;8.0;;;7.0;;
21120;SDS011;12519;43.318;21.898;2022-08-03T06:27:11;8.0;;;7.0;;
21120;SDS011;12519;43.318;21.898;2022-08-03T06:31:48;9.0;;;8.0;;
21120;SDS011;12519;43.318;21.898;2022-08-03T06:36:24;9.0;;;8.0;;
21120;SDS011;12519;43.318;21.898;2022-08-03T06:41:00;10.0;;;9.0;;
21120;SDS011;12519;43.318;21.898;2022-08-03T06:45:36;10.0;;;9.0;;
21120;SDS011;12519;43.318;21.898;2022-08-03T06:50:12;12.0;;;10.0;;
21120;SDS011;12519;43.318;21.898;2022-08-03T06:54:49;12.0;;;10.0;;
21120;SDS011;12519;43.318;21.898;2022-08-03T06:59:25;13.0;;;12.0;;
21120;SDS011;12519;43.318;21.898;2022-08-03T07:04:02;13.0;;;12.0;;
21120;SDS011;12519;43.318;21.898;2022-08-03T07:08:39;13.0;;;12.0;;
21120;SDS011;12519;43.318;21.898;2022-08-03T07:13:15;12.0;;;10.0;;
21120;SDS011;12519;43.318;21.898;2022-08-03T07:17:51;12.0;;;10.0;;
21120;SDS011;12519;43.318;21.898;2022-08-03T07:22:28;11.0;;;8.0;;
21120;SDS011;12519;43.318;21.898;2022-08-03T07:27:05;11.0;;;8.0;;
21120;SDS011;12519;43.318;21.898;2022-08-03T07:31:42;11.0;;;9.0;;
21120;SDS011;12519;43.318;21.898;2022-08-03T07:36:19;11.0;;;9.0;;
21120;SDS011;12519;43.318;21.898;2022-08-03T07:40:56;11.0;;;10.0;;
21120;SDS011;12519;43.318;21.898;2022-08-03T07:45:33;11.0;;;10.0;;
21120;SDS011;12519;43.318;21.898;2022-08-03T07:50:09;10.0;;;8.0;;
21120;SDS011;12519;43.318;21.898;2022-08-03T07:54:46;10.0;;;8.0;;
21120;SDS011;12519;43.318;21.898;2022-08-03T07:59:22;8.0;;;7.0;;
21120;SDS011;12519;43.318;21.898;2022-08-03T08:03:59;8.0;;;7.0;;
21120;SDS011;12519;43.318;21.898;2022-08-03T08:08:37;8.0;;;7.0;;
21120;SDS011;12519;43.318;21.898;2022-08-03T08:13:14;8.0;;;7.0;;
21120;SDS011;12519;43.318;21.898;2022-08-03T08:17:55;8.0;;;7.0;;
21120;SDS011;12519;43.318;21.898;2022-08-03T08:22:34;8.0;;;7.0;;
21120;SDS011;12519;43.318;21.898;2022-08-03T08:27:10;8.0;;;7.0;;
21120;SDS011;12519;43.318;21.898;2022-08-03T08:31:46;8.0;;;7.0;;
21120;SDS011;12519;43.318;21.898;2022-08-03T08:36:23;8.0;;;7.0;;
21120;SDS011;12519;43.318;21.898;2022-08-03T08:40:59;7.0;;;7.0;;
21120;SDS011;12519;43.318;21.898;2022-08-03T08:45:36;7.0;;;7.0;;
21120;SDS011;12519;43.318;21.898;2022-08-03T08:50:19;6.0;;;6.0;;
21120;SDS011;12519;43.318;21.898;2022-08-03T08:55:00;6.0;;;6.0;;
21120;SDS011;12519;43.318;21.898;2022-08-03T08:59:44;6.0;;;5.0;;
21120;SDS011;12519;43.318;21.898;2022-08-03T09:04:21;6.0;;;5.0;;
21120;SDS011;12519;43.318;21.898;2022-08-03T09:08:57;6.0;;;5.0;;
21120;SDS011;12519;43.318;21.898;2022-08-03T09:13:34;6.0;;;6.0;;
21120;SDS011;12519;43.318;21.898;2022-08-03T09:18:11;6.0;;;6.0;;
21120;SDS011;12519;43.318;21.898;2022-08-03T09:22:57;7.0;;;7.0;;
21120;SDS011;12519;43.318;21.898;2022-08-03T09:27:41;7.0;;;7.0;;
21120;SDS011;12519;43.318;21.898;2022-08-03T09:32:23;8.0;;;8.0;;
21120;SDS011;12519;43.318;21.898;2022-08-03T09:37:00;8.0;;;8.0;;
21120;SDS011;12519;43.318;21.898;2022-08-03T09:41:39;8.0;;;8.0;;
21120;SDS011;12519;43.318;21.898;2022-08-03T09:46:19;8.0;;;8.0;;
21120;SDS011;12519;43.318;21.898;2022-08-03T09:50:59;8.0;;;8.0;;
21120;SDS011;12519;43.318;21.898;2022-08-03T09:55:52;8.0;;;8.0;;
21120;SDS011;12519;43.318;21.898;2022-08-03T10:00:55;9.0;;;8.0;;
21120;SDS011;12519;43.318;21.898;2022-08-03T10:05:36;9.0;;;8.0;;
21120;SDS011;12519;43.318;21.898;2022-08-03T10:10:15;8.0;;;7.0;;
21120;SDS011;12519;43.318;21.898;2022-08-03T10:14:54;8.0;;;7.0;;
21120;SDS011;12519;43.318;21.898;2022-08-03T10:19:32;7.0;;;6.0;;
21120;SDS011;12519;43.318;21.898;2022-08-03T10:24:15;7.0;;;6.0;;
21120;SDS011;12519;43.318;21.898;2022-08-03T10:29:11;7.0;;;6.0;;
21120;SDS011;12519;43.318;21.898;2022-08-03T10:34:04;9.0;;;8.0;;
21120;SDS011;12519;43.318;21.898;2022-08-03T10:38:58;9.0;;;8.0;;
21120;SDS011;12519;43.318;21.898;2022-08-03T10:43:49;11.0;;;10.0;;
21120;SDS011;12519;43.318;21.898;2022-08-03T10:48:43;11.0;;;10.0;;
21120;SDS011;12519;43.318;21.898;2022-08-03T10:53:35;8.0;;;8.0;;
21120;SDS011;12519;43.318;21.898;2022-08-03T10:58:51;8.0;;;8.0;;
21120;SDS011;12519;43.318;21.898;2022-08-03T11:03:29;6.0;;;5.0;;
21120;SDS011;12519;43.318;21.898;2022-08-03T11:08:30;6.0;;;5.0;;
21120;SDS011;12519;43.318;21.898;2022-08-03T11:13:15;8.0;;;6.0;;
21120;SDS011;12519;43.318;21.898;2022-08-03T11:18:10;8.0;;;6.0;;
21120;SDS011;12519;43.318;21.898;2022-08-03T11:22:52;9.0;;;6.0;;
21120;SDS011;12519;43.318;21.898;2022-08-03T11:27:32;9.0;;;6.0;;
21120;SDS011;12519;43.318;21.898;2022-08-03T11:32:08;8.0;;;6.0;;
21120;SDS011;12519;43.318;21.898;2022-08-03T11:39:12;8.0;;;6.0;;
21120;SDS011;12519;43.318;21.898;2022-08-03T11:43:50;6.0;;;6.0;;
21120;SDS011;12519;43.318;21.898;2022-08-03T11:48:34;6.0;;;6.0;;
21120;SDS011;12519;43.318;21.898;2022-08-03T11:53:18;6.0;;;6.0;;
21120;SDS011;12519;43.318;21.898;2022-08-03T11:57:58;6.0;;;6.0;;
21120;SDS011;12519;43.318;21.898;2022-08-03T12:02:34;6.0;;;6.0;;
21120;SDS011;12519;43.318;21.898;2022-08-03T12:07:10;6.0;;;6.0;;
21120;SDS011;12519;43.318;21.898;2022-08-03T12:11:47;6.0;;;6.0;;
21120;SDS011;12519;43.318;21.898;2022-08-03T12:16:25;6.0;;;6.0;;
21120;SDS011;12519;43.318;21.898;2022-08-03T12:21:04;6.0;;;6.0;;
21120;SDS011;12519;43.318;21.898;2022-08-03T12:25:46;6.0;;;6.0;;
21120;SDS011;12519;43.318;21.898;2022-08-03T12:30:23;5.0;;;5.0;;
21120;SDS011;12519;43.318;21.898;2022-08-03T12:35:00;5.0;;;5.0;;
21120;SDS011;12519;43.318;21.898;2022-08-03T12:39:36;5.0;;;5.0;;
21120;SDS011;12519;43.318;21.898;2022-08-03T12:44:14;4.0;;;4.0;;
21120;SDS011;12519;43.318;21.898;2022-08-03T12:49:09;4.0;;;4.0;;
21120;SDS011;12519;43.318;21.898;2022-08-03T12:53:51;5.0;;;4.0;;
21120;SDS011;12519;43.318;21.898;2022-08-03T12:58:34;5.0;;;4.0;;
21120;SDS011;12519;43.318;21.898;2022-08-03T13:03:11;6.0;;;5.0;;
21120;SDS011;12519;43.318;21.898;2022-08-03T13:07:47;6.0;;;5.0;;
21120;SDS011;12519;43.318;21.898;2022-08-03T13:12:26;6.0;;;5.0;;
21120;SDS011;12519;43.318;21.898;2022-08-03T13:17:04;6.0;;;5.0;;
21120;SDS011;12519;43.318;21.898;2022-08-03T13:21:45;5.0;;;5.0;;
21120;SDS011;12519;43.318;21.898;2022-08-03T13:26:22;5.0;;;5.0;;
21120;SDS011;12519;43.318;21.898;2022-08-03T13:30:59;5.0;;;4.0;;
21120;SDS011;12519;43.318;21.898;2022-08-03T13:35:37;5.0;;;4.0;;
21120;SDS011;12519;43.318;21.898;2022-08-03T13:40:14;5.0;;;4.0;;
21120;SDS011;12519;43.318;21.898;2022-08-03T13:44:50;5.0;;;4.0;;
21120;SDS011;12519;43.318;21.898;2022-08-03T13:49:27;5.0;;;4.0;;
21120;SDS011;12519;43.318;21.898;2022-08-03T13:54:05;6.0;;;5.0;;
21120;SDS011;12519;43.318;21.898;2022-08-03T13:58:43;6.0;;;5.0;;
21120;SDS011;12519;43.318;21.898;2022-08-03T14:03:19;6.0;;;6.0;;
21120;SDS011;12519;43.318;21.898;2022-08-03T14:07:56;6.0;;;6.0;;
21120;SDS011;12519;43.318;21.898;2022-08-03T14:12:34;5.0;;;5.0;;
21120;SDS011;12519;43.318;21.898;2022-08-03T14:17:10;5.0;;;5.0;;
21120;SDS011;12519;43.318;21.898;2022-08-03T14:21:47;4.0;;;4.0;;
21120;SDS011;12519;43.318;21.898;2022-08-03T14:26:24;4.0;;;4.0;;
21120;SDS011;12519;43.318;21.898;2022-08-03T14:31:01;4.0;;;4.0;;
21120;SDS011;12519;43.318;21.898;2022-08-03T14:35:39;4.0;;;4.0;;
21120;SDS011;12519;43.318;21.898;2022-08-03T14:40:16;5.0;;;5.0;;
21120;SDS011;12519;43.318;21.898;2022-08-03T14:44:55;5.0;;;5.0;;
21120;SDS011;12519;43.318;21.898;2022-08-03T14:49:32;5.0;;;5.0;;
21120;SDS011;12519;43.318;21.898;2022-08-03T14:54:08;6.0;;;6.0;;
21120;SDS011;12519;43.318;21.898;2022-08-03T14:58:44;6.0;;;6.0;;
21120;SDS011;12519;43.318;21.898;2022-08-03T15:03:22;6.0;;;6.0;;
21120;SDS011;12519;43.318;21.898;2022-08-03T15:08:00;6.0;;;6.0;;
21120;SDS011;12519;43.318;21.898;2022-08-03T15:12:36;6.0;;;6.0;;
21120;SDS011;12519;43.318;21.898;2022-08-03T15:17:13;6.0;;;6.0;;
21120;SDS011;12519;43.318;21.898;2022-08-03T15:21:49;5.0;;;5.0;;
21120;SDS011;12519;43.318;21.898;2022-08-03T15:26:26;5.0;;;5.0;;
21120;SDS011;12519;43.318;21.898;2022-08-03T15:31:03;6.0;;;4.0;;
21120;SDS011;12519;43.318;21.898;2022-08-03T15:35:41;6.0;;;4.0;;
21120;SDS011;12519;43.318;21.898;2022-08-03T15:40:18;6.0;;;4.0;;
21120;SDS011;12519;43.318;21.898;2022-08-03T15:44:55;6.0;;;4.0;;
21120;SDS011;12519;43.318;21.898;2022-08-03T15:49:33;6.0;;;4.0;;
21120;SDS011;12519;43.318;21.898;2022-08-03T15:54:10;6.0;;;4.0;;
21120;SDS011;12519;43.318;21.898;2022-08-03T15:58:48;6.0;;;4.0;;
21120;SDS011;12519;43.318;21.898;2022-08-03T16:03:25;7.0;;;5.0;;
21120;SDS011;12519;43.318;21.898;2022-08-03T16:08:04;7.0;;;5.0;;
21120;SDS011;12519;43.318;21.898;2022-08-03T16:12:41;7.0;;;6.0;;
21120;SDS011;12519;43.318;21.898;2022-08-03T16:17:22;7.0;;;6.0;;
21120;SDS011;12519;43.318;21.898;2022-08-03T16:21:59;7.0;;;6.0;;
21120;SDS011;12519;43.318;21.898;2022-08-03T16:26:36;7.0;;;6.0;;
21120;SDS011;12519;43.318;21.898;2022-08-03T16:31:13;6.0;;;6.0;;
21120;SDS011;12519;43.318;21.898;2022-08-03T16:35:49;6.0;;;6.0;;
21120;SDS011;12519;43.318;21.898;2022-08-03T16:40:26;5.0;;;5.0;;
21120;SDS011;12519;43.318;21.898;2022-08-03T16:45:05;5.0;;;5.0;;
21120;SDS011;12519;43.318;21.898;2022-08-03T16:49:46;5.0;;;5.0;;
21120;SDS011;12519;43.318;21.898;2022-08-03T16:54:22;6.0;;;6.0;;
21120;SDS011;12519;43.318;21.898;2022-08-03T16:59:01;6.0;;;6.0;;
21120;SDS011;12519;43.318;21.898;2022-08-03T17:03:39;7.0;;;6.0;;
21120;SDS011;12519;43.318;21.898;2022-08-03T17:08:17;7.0;;;6.0;;
21120;SDS011;12519;43.318;21.898;2022-08-03T17:12:54;6.0;;;6.0;;
21120;SDS011;12519;43.318;21.898;2022-08-03T17:17:32;6.0;;;6.0;;
21120;SDS011;12519;43.318;21.898;2022-08-03T17:22:22;5.0;;;5.0;;
21120;SDS011;12519;43.318;21.898;2022-08-03T17:27:37;5.0;;;5.0;;
21120;SDS011;12519;43.318;21.898;2022-08-03T17:32:24;7.0;;;6.0;;
21120;SDS011;12519;43.318;21.898;2022-08-03T17:37:11;7.0;;;6.0;;
21120;SDS011;12519;43.318;21.898;2022-08-03T17:41:50;9.0;;;8.0;;
21120;SDS011;12519;43.318;21.898;2022-08-03T17:46:28;9.0;;;8.0;;
21120;SDS011;12519;43.318;21.898;2022-08-03T17:51:11;9.0;;;8.0;;
21120;SDS011;12519;43.318;21.898;2022-08-03T17:56:18;9.0;;;8.0;;
21120;SDS011;12519;43.318;21.898;2022-08-03T18:12:59;8.0;;;8.0;;
21120;SDS011;12519;43.318;21.898;2022-08-03T18:18:02;8.0;;;8.0;;
21120;SDS011;12519;43.318;21.898;2022-08-03T18:22:43;8.0;;;8.0;;
21120;SDS011;12519;43.318;21.898;2022-08-03T18:27:24;8.0;;;8.0;;
21120;SDS011;12519;43.318;21.898;2022-08-03T18:32:08;8.0;;;8.0;;
21120;SDS011;12519;43.318;21.898;2022-08-03T18:36:48;8.0;;;8.0;;
21120;SDS011;12519;43.318;21.898;2022-08-03T18:41:27;9.0;;;7.0;;
21120;SDS011;12519;43.318;21.898;2022-08-03T18:46:53;9.0;;;7.0;;
21120;SDS011;12519;43.318;21.898;2022-08-03T18:51:45;10.0;;;7.0;;
21120;SDS011;12519;43.318;21.898;2022-08-03T18:56:50;10.0;;;7.0;;
21120;SDS011;12519;43.318;21.898;2022-08-03T19:01:50;11.0;;;7.0;;
21120;SDS011;12519;43.318;21.898;2022-08-03T19:06:40;11.0;;;7.0;;
21120;SDS011;12519;43.318;21.898;2022-08-03T19:11:36;10.0;;;7.0;;
21120;SDS011;12519;43.318;21.898;2022-08-03T19:16:34;10.0;;;7.0;;
21120;SDS011;12519;43.318;21.898;2022-08-03T19:21:15;8.0;;;7.0;;
21120;SDS011;12519;43.318;21.898;2022-08-03T19:25:52;8.0;;;7.0;;
21120;SDS011;12519;43.318;21.898;2022-08-03T19:30:36;8.0;;;7.0;;
21120;SDS011;12519;43.318;21.898;2022-08-03T19:35:15;12.0;;;10.0;;
21120;SDS011;12519;43.318;21.898;2022-08-03T19:39:54;12.0;;;10.0;;
21120;SDS011;12519;43.318;21.898;2022-08-03T19:44:38;17.0;;;14.0;;
21120;SDS011;12519;43.318;21.898;2022-08-03T19:49:32;17.0;;;14.0;;
21120;SDS011;12519;43.318;21.898;2022-08-03T19:54:19;13.0;;;12.0;;
21120;SDS011;12519;43.318;21.898;2022-08-03T19:59:00;13.0;;;12.0;;
21120;SDS011;12519;43.318;21.898;2022-08-03T20:03:38;9.0;;;9.0;;
21120;SDS011;12519;43.318;21.898;2022-08-03T20:08:19;9.0;;;9.0;;
21120;SDS011;12519;43.318;21.898;2022-08-03T20:12:59;9.0;;;8.0;;
21120;SDS011;12519;43.318;21.898;2022-08-03T20:17:38;9.0;;;8.0;;
21120;SDS011;12519;43.318;21.898;2022-08-03T20:22:18;9.0;;;8.0;;
21120;SDS011;12519;43.318;21.898;2022-08-03T20:27:10;9.0;;;8.0;;
21120;SDS011;12519;43.318;21.898;2022-08-03T20:31:55;10.0;;;9.0;;
21120;SDS011;12519;43.318;21.898;2022-08-03T20:36:33;10.0;;;9.0;;
21120;SDS011;12519;43.318;21.898;2022-08-03T20:41:11;12.0;;;10.0;;
21120;SDS011;12519;43.318;21.898;2022-08-03T20:45:49;12.0;;;10.0;;
21120;SDS011;12519;43.318;21.898;2022-08-03T20:50:28;12.0;;;10.0;;
21120;SDS011;12519;43.318;21.898;2022-08-03T20:55:08;12.0;;;10.0;;
21120;SDS011;12519;43.318;21.898;2022-08-03T20:59:45;12.0;;;10.0;;
21120;SDS011;12519;43.318;21.898;2022-08-03T21:04:24;13.0;;;10.0;;
21120;SDS011;12519;43.318;21.898;2022-08-03T21:09:05;13.0;;;10.0;;
21120;SDS011;12519;43.318;21.898;2022-08-03T21:14:01;12.0;;;9.0;;
21120;SDS011;12519;43.318;21.898;2022-08-03T21:19:02;12.0;;;9.0;;
21120;SDS011;12519;43.318;21.898;2022-08-03T21:23:48;10.0;;;8.0;;
21120;SDS011;12519;43.318;21.898;2022-08-03T21:28:33;10.0;;;8.0;;
21120;SDS011;12519;43.318;21.898;2022-08-03T21:33:15;9.0;;;8.0;;
21120;SDS011;12519;43.318;21.898;2022-08-03T21:37:53;9.0;;;8.0;;
21120;SDS011;12519;43.318;21.898;2022-08-03T21:42:31;8.0;;;7.0;;
21120;SDS011;12519;43.318;21.898;2022-08-03T21:47:12;8.0;;;7.0;;
21120;SDS011;12519;43.318;21.898;2022-08-03T21:51:54;8.0;;;7.0;;
21120;SDS011;12519;43.318;21.898;2022-08-03T21:56:46;8.0;;;7.0;;
21120;SDS011;12519;43.318;21.898;2022-08-03T22:01:35;9.0;;;7.0;;
21120;SDS011;12519;43.318;21.898;2022-08-03T22:06:17;9.0;;;7.0;;
21120;SDS011;12519;43.318;21.898;2022-08-03T22:10:55;8.0;;;7.0;;
21120;SDS011;12519;43.318;21.898;2022-08-03T22:15:32;8.0;;;7.0;;
21120;SDS011;12519;43.318;21.898;2022-08-03T22:20:13;8.0;;;7.0;;
21120;SDS011;12519;43.318;21.898;2022-08-03T22:25:03;8.0;;;7.0;;
21120;SDS011;12519;43.318;21.898;2022-08-03T22:29:46;8.0;;;7.0;;
21120;SDS011;12519;43.318;21.898;2022-08-03T22:34:28;9.0;;;8.0;;
21120;SDS011;12519;43.318;21.898;2022-08-03T22:39:05;9.0;;;8.0;;
21120;SDS011;12519;43.318;21.898;2022-08-03T22:43:43;10.0;;;8.0;;
21120;SDS011;12519;43.318;21.898;2022-08-03T22:48:21;10.0;;;8.0;;
21120;SDS011;12519;43.318;21.898;2022-08-03T22:53:01;8.0;;;8.0;;
21120;SDS011;12519;43.318;21.898;2022-08-03T22:57:39;8.0;;;8.0;;
21120;SDS011;12519;43.318;21.898;2022-08-03T23:02:20;7.0;;;7.0;;
21120;SDS011;12519;43.318;21.898;2022-08-03T23:07:05;7.0;;;7.0;;
21120;SDS011;12519;43.318;21.898;2022-08-03T23:11:47;8.0;;;7.0;;
21120;SDS011;12519;43.318;21.898;2022-08-03T23:16:38;8.0;;;7.0;;
21120;SDS011;12519;43.318;21.898;2022-08-03T23:21:21;8.0;;;7.0;;
21120;SDS011;12519;43.318;21.898;2022-08-03T23:26:04;8.0;;;7.0;;
21120;SDS011;12519;43.318;21.898;2022-08-03T23:30:44;8.0;;;7.0;;
21120;SDS011;12519;43.318;21.898;2022-08-03T23:35:25;7.0;;;6.0;;
21120;SDS011;12519;43.318;21.898;2022-08-03T23:40:07;7.0;;;6.0;;
21120;SDS011;12519;43.318;21.898;2022-08-03T23:44:56;6.0;;;6.0;;
21120;SDS011;12519;43.318;21.898;2022-08-03T23:49:42;6.0;;;6.0;;
21120;SDS011;12519;43.318;21.898;2022-08-03T23:55:00;6.0;;;6.0;;
